Time;durP1;ratioP1;P1;durP2;ratioP2;P2;SDS_P1;SDS_P2;PMS_P1;PMS_P2;Temp;Humidity;BMP_temperature;BMP_pressure;BME280_temperature;BME280_humidity;BME280_pressure;Samples;Min_cycle;Max_cycle;Signal;HPM_P1;HPM_P2
2021/07/31 00:00:59;;;;;;;6.32;5.40;;;19.60;78.20;;;;;;5032940;28;20359;-73
2021/07/31 00:03:25;;;;;;;7.97;6.03;;;19.60;78.20;;;;;;5032966;28;20057;-73
2021/07/31 00:05:50;;;;;;;6.45;5.57;;;19.50;78.40;;;;;;5032717;28;20073;-73
2021/07/31 00:08:16;;;;;;;7.95;5.85;;;19.50;78.60;;;;;;5032726;28;20061;-74
2021/07/31 00:10:41;;;;;;;10.05;6.28;;;19.50;78.50;;;;;;5033060;28;20053;-73
2021/07/31 00:13:07;;;;;;;5.90;5.30;;;19.50;78.60;;;;;;5032864;28;20030;-73
2021/07/31 00:15:32;;;;;;;10.35;6.22;;;19.50;78.90;;;;;;5032900;28;20099;-73
2021/07/31 00:17:58;;;;;;;6.55;5.75;;;19.40;79.10;;;;;;5032625;28;20048;-73
2021/07/31 00:20:23;;;;;;;8.13;5.47;;;19.40;79.10;;;;;;5032705;28;20025;-73
2021/07/31 00:22:49;;;;;;;9.07;5.85;;;19.30;79.40;;;;;;5014976;28;20053;-73
2021/07/31 00:25:15;;;;;;;11.82;6.47;;;19.30;79.50;;;;;;5032661;28;20057;-73
2021/07/31 00:27:40;;;;;;;7.10;5.60;;;19.30;79.90;;;;;;5032627;28;20030;-73
2021/07/31 00:30:06;;;;;;;7.75;6.10;;;19.20;79.90;;;;;;5032564;28;20025;-73
2021/07/31 00:32:32;;;;;;;8.70;6.05;;;19.20;80.00;;;;;;5032388;28;20389;-73
2021/07/31 00:34:57;;;;;;;7.82;6.35;;;19.20;80.10;;;;;;5032533;28;20605;-73
2021/07/31 00:37:23;;;;;;;6.28;5.32;;;19.20;80.20;;;;;;5032583;28;20037;-73
2021/07/31 00:39:48;;;;;;;6.45;5.72;;;19.20;80.20;;;;;;5033561;28;20029;-73
2021/07/31 00:42:14;;;;;;;7.00;6.28;;;19.20;80.30;;;;;;5036126;28;20541;-73
2021/07/31 00:44:39;;;;;;;8.55;6.28;;;19.20;80.20;;;;;;5036083;28;20115;-73
2021/07/31 00:47:05;;;;;;;8.45;5.80;;;19.20;80.40;;;;;;5036385;28;20030;-72
2021/07/31 00:49:32;;;;;;;10.30;6.75;;;19.20;80.30;;;;;;5037028;28;20466;-72
2021/07/31 00:51:58;;;;;;;7.93;5.45;;;19.10;80.20;;;;;;5035939;28;20096;-72
2021/07/31 00:54:24;;;;;;;7.63;6.18;;;19.20;80.30;;;;;;5035885;28;20117;-72
2021/07/31 00:56:50;;;;;;;6.93;6.25;;;19.10;80.50;;;;;;5035757;28;20036;-72
2021/07/31 00:59:16;;;;;;;6.45;5.30;;;19.10;80.70;;;;;;5035830;28;20470;-72
2021/07/31 01:01:41;;;;;;;8.85;5.80;;;19.10;80.80;;;;;;5035676;28;20036;-72
2021/07/31 01:04:07;;;;;;;8.18;6.15;;;19.10;81.00;;;;;;5035533;28;20069;-73
2021/07/31 01:06:33;;;;;;;6.20;5.60;;;19.10;80.80;;;;;;5035457;28;20073;-73
2021/07/31 01:09:00;;;;;;;6.32;5.70;;;19.00;80.60;;;;;;5035530;28;20065;-73
2021/07/31 01:11:26;;;;;;;9.15;6.03;;;19.00;80.70;;;;;;5035525;28;20029;-73
2021/07/31 01:13:52;;;;;;;7.10;5.80;;;19.00;81.00;;;;;;5017644;28;20111;-73
2021/07/31 01:16:17;;;;;;;7.80;5.47;;;19.00;81.80;;;;;;5035509;28;20068;-72
2021/07/31 01:18:43;;;;;;;6.10;5.50;;;18.90;80.90;;;;;;5035577;28;20058;-73
2021/07/31 01:21:09;;;;;;;6.82;5.72;;;18.90;81.10;;;;;;5036461;28;20040;-73
2021/07/31 01:23:35;;;;;;;7.05;5.88;;;18.90;81.10;;;;;;5038651;28;20021;-73
2021/07/31 01:26:00;;;;;;;9.30;5.70;;;18.80;81.00;;;;;;5035545;28;20474;-72
2021/07/31 01:28:26;;;;;;;7.28;6.05;;;18.80;81.10;;;;;;5035224;28;20037;-73
2021/07/31 01:30:52;;;;;;;6.50;5.75;;;18.80;81.00;;;;;;5035128;28;20029;-73
2021/07/31 01:33:18;;;;;;;9.15;6.20;;;18.70;81.10;;;;;;5035003;28;20045;-73
2021/07/31 01:35:44;;;;;;;8.05;5.45;;;18.70;81.50;;;;;;5035003;28;20021;-73
2021/07/31 01:38:09;;;;;;;7.72;5.47;;;18.70;81.30;;;;;;5034957;28;20025;-73
2021/07/31 01:40:35;;;;;;;7.38;5.38;;;18.60;80.90;;;;;;5035039;28;20033;-73
2021/07/31 01:43:01;;;;;;;10.88;6.20;;;18.60;81.00;;;;;;5034904;28;20029;-73
2021/07/31 01:45:27;;;;;;;7.53;5.90;;;18.50;81.60;;;;;;5034998;28;20021;-73
2021/07/31 01:47:53;;;;;;;7.82;5.78;;;18.50;81.20;;;;;;5034835;28;20513;-73
2021/07/31 01:50:19;;;;;;;7.57;6.07;;;18.50;81.10;;;;;;5034566;28;20021;-73
2021/07/31 01:52:45;;;;;;;9.32;6.53;;;18.50;81.10;;;;;;5033691;28;20032;-73
2021/07/31 01:55:12;;;;;;;10.18;5.78;;;18.40;81.00;;;;;;5034619;28;20056;-73
2021/07/31 01:57:37;;;;;;;6.80;5.35;;;18.40;80.90;;;;;;5034628;28;20119;-73
2021/07/31 02:00:04;;;;;;;6.18;5.05;;;18.50;80.90;;;;;;5034544;28;20470;-73
2021/07/31 02:02:30;;;;;;;7.20;5.45;;;18.40;80.80;;;;;;5034559;28;20104;-73
2021/07/31 02:04:56;;;;;;;6.15;5.55;;;18.40;80.80;;;;;;5034275;28;20124;-73
2021/07/31 02:07:22;;;;;;;8.57;5.30;;;18.40;81.60;;;;;;5016731;28;20466;-73
2021/07/31 02:09:47;;;;;;;10.68;5.35;;;18.50;78.50;;;;;;5034341;28;20029;-74
2021/07/31 02:12:13;;;;;;;8.32;5.75;;;18.40;78.80;;;;;;5034389;28;20021;-73
2021/07/31 02:14:39;;;;;;;9.88;6.05;;;18.20;80.80;;;;;;5034400;28;20127;-73
2021/07/31 02:17:05;;;;;;;9.30;6.50;;;18.20;81.40;;;;;;5016470;28;20108;-73
2021/07/31 02:19:30;;;;;;;7.25;5.47;;;18.20;81.60;;;;;;5034185;28;20035;-73
2021/07/31 02:21:57;;;;;;;12.02;6.03;;;18.10;81.40;;;;;;5034198;28;20025;-73
2021/07/31 02:24:23;;;;;;;9.18;5.13;;;18.00;80.50;;;;;;5034191;28;20021;-73
2021/07/31 02:26:48;;;;;;;6.72;5.20;;;18.00;80.60;;;;;;5034692;28;20481;-72
2021/07/31 02:29:15;;;;;;;5.97;5.38;;;17.80;81.10;;;;;;5034410;28;20101;-73
2021/07/31 02:31:40;;;;;;;8.02;4.88;;;17.80;81.70;;;;;;5033985;28;20029;-73
2021/07/31 02:34:06;;;;;;;8.88;4.35;;;17.80;82.00;;;;;;5033900;28;20040;-73
2021/07/31 02:36:31;;;;;;;10.13;5.22;;;17.80;81.60;;;;;;5033942;28;20470;-72
2021/07/31 02:38:57;;;;;;;6.57;4.95;;;17.90;81.50;;;;;;5033873;28;20032;-72
2021/07/31 02:41:22;;;;;;;7.43;5.25;;;17.90;81.50;;;;;;5033888;28;20032;-72
2021/07/31 02:43:48;;;;;;;7.22;6.10;;;18.00;81.90;;;;;;5033888;28;20028;-72
2021/07/31 02:46:14;;;;;;;6.22;5.15;;;18.00;81.70;;;;;;5033707;28;20072;-72
2021/07/31 02:48:39;;;;;;;9.02;5.25;;;18.00;81.00;;;;;;5033621;28;20096;-72
2021/07/31 02:51:10;;;;;;;9.48;5.30;;;18.00;80.10;;;;;;5033606;28;20060;-72
2021/07/31 02:53:36;;;;;;;5.72;4.85;;;17.90;80.30;;;;;;5033465;28;20033;-73
2021/07/31 02:56:02;;;;;;;13.40;5.00;;;17.90;80.40;;;;;;5033586;28;20025;-72
2021/07/31 02:58:28;;;;;;;9.95;5.03;;;17.80;80.30;;;;;;5033436;28;20029;-72
2021/07/31 03:00:54;;;;;;;7.43;4.32;;;17.70;80.90;;;;;;5033437;28;20025;-72
2021/07/31 03:03:20;;;;;;;6.13;4.68;;;17.70;80.60;;;;;;5033108;28;20021;-72
2021/07/31 03:05:56;;;;;;;7.53;4.20;;;17.70;81.50;;;;;;5033280;28;20049;-72
2021/07/31 03:08:22;;;;;;;9.05;4.38;;;17.70;80.10;;;;;;5033314;28;20164;-72
2021/07/31 03:10:55;;;;;;;5.07;3.95;;;17.70;79.90;;;;;;5033290;28;20018;-72
2021/07/31 03:13:21;;;;;;;7.65;4.53;;;17.60;80.00;;;;;;5033323;28;20034;-72
2021/07/31 03:15:46;;;;;;;7.75;4.53;;;17.60;79.80;;;;;;5033260;28;20021;-72
2021/07/31 03:18:12;;;;;;;8.52;4.93;;;17.70;79.90;;;;;;5015401;28;20036;-71
2021/07/31 03:20:37;;;;;;;5.63;4.32;;;17.70;79.60;;;;;;5033250;28;20382;-72
2021/07/31 03:23:03;;;;;;;5.32;4.10;;;17.70;79.50;;;;;;5033133;28;20100;-71
2021/07/31 03:25:28;;;;;;;4.93;4.28;;;17.80;79.50;;;;;;5033070;28;20061;-72
2021/07/31 03:27:54;;;;;;;4.95;4.03;;;17.80;79.10;;;;;;5033017;28;20518;-72
2021/07/31 03:30:19;;;;;;;8.48;4.38;;;17.80;79.10;;;;;;5033041;28;20104;-71
2021/07/31 03:32:45;;;;;;;9.23;4.68;;;17.80;79.10;;;;;;5032818;28;20043;-71
2021/07/31 03:35:10;;;;;;;5.65;4.22;;;17.80;78.90;;;;;;5015310;28;20116;-71
2021/07/31 03:37:36;;;;;;;6.68;3.88;;;17.80;79.10;;;;;;5032976;28;20032;-71
2021/07/31 03:40:02;;;;;;;5.90;4.10;;;17.80;79.20;;;;;;5032892;28;20105;-72
2021/07/31 03:42:27;;;;;;;7.13;3.83;;;17.80;78.90;;;;;;5032836;28;20032;-74
2021/07/31 03:44:53;;;;;;;5.65;4.03;;;17.70;78.90;;;;;;5032864;28;20030;-71
2021/07/31 03:47:18;;;;;;;8.45;4.38;;;17.70;78.90;;;;;;5032625;28;20030;-71
2021/07/31 03:49:44;;;;;;;7.80;4.10;;;17.60;78.70;;;;;;5032738;28;20489;-71
2021/07/31 03:52:10;;;;;;;6.75;3.78;;;17.60;79.00;;;;;;5015097;28;20022;-71
2021/07/31 03:54:36;;;;;;;4.57;3.55;;;17.60;79.20;;;;;;5032669;28;20041;-71
2021/07/31 03:57:02;;;;;;;11.75;4.03;;;17.60;79.20;;;;;;5032683;28;20075;-72
2021/07/31 03:59:28;;;;;;;4.88;3.72;;;17.60;79.20;;;;;;5032713;28;20025;-73
2021/07/31 04:01:55;;;;;;;5.60;4.10;;;17.70;79.30;;;;;;5032709;28;20041;-71
2021/07/31 04:04:20;;;;;;;7.03;4.15;;;17.70;79.50;;;;;;5032701;28;20018;-71
2021/07/31 04:06:46;;;;;;;13.95;4.53;;;17.70;79.80;;;;;;5032532;28;20053;-74
2021/07/31 04:09:11;;;;;;;5.32;3.65;;;17.50;78.60;;;;;;5015015;28;20017;-73
2021/07/31 04:11:37;;;;;;;6.22;3.70;;;17.40;78.50;;;;;;5032637;28;20036;-73
2021/07/31 04:14:02;;;;;;;7.38;3.70;;;17.40;78.80;;;;;;5032578;28;20045;-73
2021/07/31 04:16:28;;;;;;;8.98;4.00;;;17.40;78.90;;;;;;5018678;28;20018;-72
2021/07/31 04:18:53;;;;;;;5.75;3.88;;;17.40;78.80;;;;;;5036459;28;20038;-73
2021/07/31 04:21:19;;;;;;;4.38;3.38;;;17.40;78.80;;;;;;5038637;28;20022;-72
2021/07/31 04:23:44;;;;;;;6.45;3.78;;;17.40;78.90;;;;;;5036523;28;20021;-72
2021/07/31 04:26:15;;;;;;;4.88;3.88;;;17.50;79.20;;;;;;5036464;28;20101;-72
2021/07/31 04:28:42;;;;;;;5.53;3.78;;;17.50;79.40;;;;;;5036682;28;20017;-73
2021/07/31 04:31:09;;;;;;;7.45;3.53;;;17.50;79.40;;;;;;5036298;28;20079;-73
2021/07/31 04:33:35;;;;;;;7.13;3.70;;;17.60;79.70;;;;;;5036507;28;20091;-73
2021/07/31 04:36:02;;;;;;;7.32;3.72;;;17.60;79.70;;;;;;5036141;28;20485;-74
2021/07/31 04:38:28;;;;;;;4.97;3.22;;;17.60;79.80;;;;;;5036152;28;20532;-74
2021/07/31 04:40:54;;;;;;;5.22;3.67;;;17.60;80.00;;;;;;5036049;28;20029;-74
2021/07/31 04:43:19;;;;;;;5.72;3.65;;;17.50;80.10;;;;;;5036123;28;20079;-75
2021/07/31 04:45:45;;;;;;;6.10;3.55;;;17.60;79.90;;;;;;5036062;28;20080;-73
2021/07/31 04:48:10;;;;;;;6.22;3.58;;;17.60;79.60;;;;;;5035960;28;20041;-72
2021/07/31 04:50:36;;;;;;;5.78;3.58;;;17.60;79.50;;;;;;5017994;28;20026;-74
2021/07/31 04:53:02;;;;;;;4.65;3.45;;;17.60;79.50;;;;;;5035822;28;20083;-74
2021/07/31 04:55:27;;;;;;;4.43;3.53;;;17.70;79.30;;;;;;5035694;28;20026;-74
2021/07/31 04:57:53;;;;;;;7.15;4.53;;;17.70;78.80;;;;;;5035606;28;20486;-71
2021/07/31 05:00:18;;;;;;;6.82;4.00;;;17.70;78.50;;;;;;5035707;28;20056;-71
2021/07/31 05:02:44;;;;;;;6.63;3.40;;;17.70;78.20;;;;;;5035676;28;20097;-74
2021/07/31 05:05:09;;;;;;;9.05;3.25;;;17.80;77.90;;;;;;5035361;28;20406;-73
2021/07/31 05:07:35;;;;;;;5.25;3.20;;;17.80;77.70;;;;;;5035649;28;20021;-71
2021/07/31 05:10:00;;;;;;;4.78;3.50;;;17.80;77.70;;;;;;5035423;28;20025;-74
2021/07/31 05:12:26;;;;;;;4.10;2.85;;;17.80;78.10;;;;;;5035514;28;20087;-73
2021/07/31 05:14:52;;;;;;;5.30;3.45;;;17.80;78.30;;;;;;5035361;28;20505;-74
2021/07/31 05:17:20;;;;;;;5.50;3.75;;;17.80;78.40;;;;;;5035309;28;20104;-72
2021/07/31 05:19:46;;;;;;;10.77;3.78;;;17.80;78.50;;;;;;5035177;28;20040;-74
2021/07/31 05:22:15;;;;;;;7.22;3.40;;;17.80;78.70;;;;;;5035131;28;20112;-73
2021/07/31 05:24:42;;;;;;;5.93;3.60;;;17.80;78.70;;;;;;5017370;28;20026;-72
2021/07/31 05:27:08;;;;;;;5.13;3.20;;;17.80;78.70;;;;;;5034908;28;20086;-73
2021/07/31 05:29:33;;;;;;;5.40;3.42;;;17.80;78.70;;;;;;5035147;28;20029;-72
2021/07/31 05:31:59;;;;;;;4.97;2.88;;;17.90;78.80;;;;;;5035027;28;20025;-71
2021/07/31 05:34:25;;;;;;;8.80;3.50;;;17.90;78.80;;;;;;5034804;28;20102;-72
2021/07/31 05:36:51;;;;;;;3.92;3.22;;;18.00;78.50;;;;;;5034864;28;20101;-74
2021/07/31 05:39:16;;;;;;;7.25;3.22;;;18.10;78.40;;;;;;5034969;28;20539;-72
2021/07/31 05:41:42;;;;;;;6.63;3.50;;;18.20;78.00;;;;;;5034815;28;20029;-72
2021/07/31 05:44:07;;;;;;;4.57;3.20;;;18.30;77.50;;;;;;5034758;28;20033;-72
2021/07/31 05:46:33;;;;;;;5.88;3.33;;;18.40;77.00;;;;;;5034773;28;20087;-72
2021/07/31 05:48:59;;;;;;;4.78;3.00;;;18.60;76.10;;;;;;5034588;28;20101;-72
2021/07/31 05:51:24;;;;;;;3.67;3.17;;;18.70;75.00;;;;;;5034494;28;20041;-72
2021/07/31 05:53:50;;;;;;;6.22;2.55;;;18.70;74.30;;;;;;5034473;28;20419;-71
2021/07/31 05:56:15;;;;;;;3.60;2.20;;;18.70;73.50;;;;;;5016544;28;20022;-72
2021/07/31 05:58:41;;;;;;;4.82;2.53;;;18.70;72.20;;;;;;5034363;28;20029;-72
2021/07/31 06:01:07;;;;;;;4.40;2.80;;;18.70;71.90;;;;;;5034400;28;20029;-72
2021/07/31 06:03:33;;;;;;;6.55;2.40;;;18.70;71.60;;;;;;5034514;28;20079;-72
2021/07/31 06:05:59;;;;;;;3.45;2.15;;;18.90;71.30;;;;;;5034277;28;20057;-72
2021/07/31 06:08:25;;;;;;;3.20;2.08;;;19.00;70.80;;;;;;5034397;28;20026;-72
2021/07/31 06:10:50;;;;;;;5.80;2.90;;;19.20;71.10;;;;;;5034268;28;20036;-72
2021/07/31 06:13:16;;;;;;;5.70;2.63;;;19.40;69.70;;;;;;5034267;28;20040;-72
2021/07/31 06:15:42;;;;;;;8.95;2.30;;;19.30;67.20;;;;;;5040771;28;20029;-72
2021/07/31 06:18:08;;;;;;;6.50;2.65;;;19.50;66.90;;;;;;5053007;28;20017;-72
2021/07/31 06:20:34;;;;;;;3.35;1.90;;;19.60;66.40;;;;;;5053607;28;20385;-73
2021/07/31 06:22:59;;;;;;;3.67;2.05;;;19.80;66.00;;;;;;5053530;28;20077;-76
2021/07/31 06:25:25;;;;;;;6.13;2.10;;;19.90;65.50;;;;;;5052857;28;20052;-73
2021/07/31 06:27:54;;;;;;;5.07;2.25;;;20.00;64.00;;;;;;5052867;28;20056;-75
2021/07/31 06:30:20;;;;;;;4.45;2.45;;;20.20;63.60;;;;;;5053867;28;20017;-73
2021/07/31 06:32:49;;;;;;;7.28;2.47;;;20.20;62.70;;;;;;5053601;28;20100;-74
2021/07/31 06:35:16;;;;;;;12.10;3.47;;;20.10;62.40;;;;;;5053550;28;20025;-72
2021/07/31 06:37:41;;;;;;;5.65;2.53;;;20.10;62.10;;;;;;5053080;28;20025;-72
2021/07/31 06:40:09;;;;;;;6.65;2.78;;;19.70;63.00;;;;;;5053427;28;20086;-71
2021/07/31 06:42:34;;;;;;;7.63;2.63;;;19.70;64.20;;;;;;5053545;28;20017;-71
2021/07/31 06:45:00;;;;;;;5.93;2.63;;;19.70;64.60;;;;;;5053530;28;20376;-73
2021/07/31 06:47:26;;;;;;;10.40;2.40;;;19.90;64.90;;;;;;5053369;28;20036;-74
2021/07/31 06:49:51;;;;;;;9.70;3.08;;;19.80;64.10;;;;;;5053092;28;20024;-73
2021/07/31 06:52:17;;;;;;;6.80;2.65;;;19.80;64.10;;;;;;5053154;28;20056;-73
2021/07/31 06:54:42;;;;;;;6.45;2.60;;;19.80;63.20;;;;;;5035244;28;20029;-73
2021/07/31 06:57:12;;;;;;;8.50;2.85;;;19.70;64.50;;;;;;5053181;28;20096;-74
2021/07/31 06:59:38;;;;;;;5.25;2.50;;;19.70;64.90;;;;;;5035221;28;20113;-72
2021/07/31 07:02:04;;;;;;;6.25;3.08;;;19.60;65.30;;;;;;5053122;28;20493;-72
2021/07/31 07:04:30;;;;;;;10.57;3.15;;;19.70;64.80;;;;;;5053021;28;20025;-73
2021/07/31 07:06:56;;;;;;;11.63;3.25;;;19.60;65.50;;;;;;5053119;28;20032;-73
2021/07/31 07:09:21;;;;;;;7.38;3.25;;;19.60;66.40;;;;;;5053114;28;20099;-73
2021/07/31 07:11:47;;;;;;;5.47;2.60;;;19.70;65.80;;;;;;5053041;28;20076;-75
2021/07/31 07:14:13;;;;;;;5.18;2.40;;;19.80;65.50;;;;;;5052982;28;20461;-81
2021/07/31 07:16:39;;;;;;;5.43;2.95;;;19.80;65.20;;;;;;5053069;28;20021;-75
2021/07/31 07:19:04;;;;;;;9.77;2.70;;;19.80;64.60;;;;;;5034810;28;20021;-76
2021/07/31 07:21:30;;;;;;;7.25;2.88;;;19.90;65.10;;;;;;5052938;28;20028;-78
2021/07/31 07:23:56;;;;;;;4.07;2.33;;;19.80;65.10;;;;;;5052881;28;20489;-75
2021/07/31 07:26:21;;;;;;;22.08;4.00;;;19.70;65.20;;;;;;5053579;28;20021;-81
2021/07/31 07:28:47;;;;;;;13.15;3.30;;;19.70;67.70;;;;;;5054299;28;20028;-86
2021/07/31 07:31:14;;;;;;;4.38;2.42;;;19.80;68.00;;;;;;5053031;28;20036;-83
2021/07/31 07:33:41;;;;;;;8.38;3.00;;;20.20;69.90;;;;;;5052730;28;20033;-75
2021/07/31 07:36:14;;;;;;;7.00;2.55;;;20.40;67.90;;;;;;5034731;28;20029;-78
2021/07/31 07:38:39;;;;;;;8.43;2.88;;;20.30;63.00;;;;;;5052730;28;20087;-77
2021/07/31 07:41:12;;;;;;;6.57;2.60;;;20.40;62.90;;;;;;5052664;28;20386;-76
2021/07/31 07:43:38;;;;;;;6.68;2.20;;;20.60;63.20;;;;;;5052820;28;20434;-75
2021/07/31 07:46:04;;;;;;;3.33;2.05;;;20.70;62.00;;;;;;5052625;28;20109;-76
2021/07/31 07:48:30;;;;;;;5.95;2.63;;;20.80;60.00;;;;;;5052125;28;20230;-75
2021/07/31 07:50:56;;;;;;;3.42;2.30;;;20.90;60.00;;;;;;5055456;28;20119;-76
2021/07/31 07:53:22;;;;;;;7.32;2.30;;;20.90;59.80;;;;;;5056797;28;20112;-76
2021/07/31 07:55:48;;;;;;;5.57;2.97;;;20.50;59.00;;;;;;5056528;28;20025;-76
2021/07/31 07:58:14;;;;;;;5.40;2.50;;;20.20;60.80;;;;;;5056504;28;20619;-76
2021/07/31 08:00:42;;;;;;;5.85;2.35;;;20.00;60.40;;;;;;5056708;28;20084;-76
2021/07/31 08:03:08;;;;;;;7.35;2.70;;;20.20;61.00;;;;;;5056285;28;20024;-76
2021/07/31 08:05:37;;;;;;;6.20;2.28;;;20.40;60.80;;;;;;5056324;28;20053;-76
2021/07/31 08:08:04;;;;;;;5.72;2.45;;;20.50;60.10;;;;;;5056270;28;20108;-76
2021/07/31 08:10:30;;;;;;;5.57;2.10;;;20.50;58.30;;;;;;5056093;28;20497;-76
2021/07/31 08:12:56;;;;;;;5.72;2.30;;;20.40;58.40;;;;;;5055990;28;20048;-77
2021/07/31 08:15:21;;;;;;;5.88;2.47;;;20.50;58.20;;;;;;5056554;28;20025;-77
2021/07/31 08:17:47;;;;;;;5.60;2.20;;;20.50;57.20;;;;;;5056062;28;20373;-77
2021/07/31 08:20:13;;;;;;;4.82;2.05;;;20.50;56.50;;;;;;5056230;28;20416;-77
2021/07/31 08:22:39;;;;;;;2.88;1.85;;;20.70;56.90;;;;;;5056015;28;20108;-76
2021/07/31 08:25:05;;;;;;;4.10;1.88;;;20.90;55.10;;;;;;5056227;28;20600;-76
2021/07/31 08:27:30;;;;;;;5.50;1.95;;;20.80;54.70;;;;;;5055857;28;20037;-76
2021/07/31 08:29:56;;;;;;;7.00;1.90;;;20.70;54.30;;;;;;5055906;28;20499;-76
2021/07/31 08:32:22;;;;;;;3.35;1.75;;;20.60;54.50;;;;;;5055903;28;20056;-76
2021/07/31 08:34:47;;;;;;;4.53;2.00;;;20.50;55.40;;;;;;5055634;28;20036;-76
2021/07/31 08:37:13;;;;;;;4.63;1.88;;;20.70;55.70;;;;;;5055392;28;20028;-75
2021/07/31 08:39:38;;;;;;;3.72;1.85;;;21.10;56.30;;;;;;5055064;28;20079;-77
2021/07/31 08:42:05;;;;;;;4.30;1.75;;;21.40;54.20;;;;;;5055577;28;20104;-76
2021/07/31 08:44:35;;;;;;;3.00;2.13;;;21.20;53.10;;;;;;5055663;28;20025;-77
2021/07/31 08:47:04;;;;;;;3.30;2.17;;;21.20;53.10;;;;;;5054768;28;20409;-75
2021/07/31 08:49:31;;;;;;;3.40;1.90;;;21.50;53.20;;;;;;5055570;28;20086;-74
2021/07/31 08:51:58;;;;;;;6.80;2.45;;;21.70;53.70;;;;;;5055149;28;20024;-74
2021/07/31 08:54:24;;;;;;;3.78;2.00;;;21.60;52.80;;;;;;5055386;28;20033;-75
2021/07/31 08:56:49;;;;;;;5.63;2.40;;;21.70;53.70;;;;;;5055497;28;20477;-75
2021/07/31 08:59:15;;;;;;;6.53;2.67;;;21.60;54.20;;;;;;5037424;28;20031;-74
2021/07/31 09:01:41;;;;;;;5.47;2.25;;;21.60;53.70;;;;;;5054803;28;20017;-74
2021/07/31 09:04:12;;;;;;;6.15;2.03;;;21.40;54.80;;;;;;5055206;28;20021;-73
2021/07/31 09:06:38;;;;;;;4.10;2.05;;;21.40;54.00;;;;;;5055106;28;20056;-74
2021/07/31 09:09:04;;;;;;;7.25;2.20;;;21.50;54.40;;;;;;5055104;28;20024;-74
2021/07/31 09:11:30;;;;;;;6.43;2.38;;;21.40;53.90;;;;;;5055152;28;20029;-74
2021/07/31 09:14:13;;;;;;;5.55;2.20;;;21.70;54.10;;;;;;5054832;28;20524;-74
2021/07/31 09:16:39;;;;;;;3.60;2.00;;;21.80;53.00;;;;;;5054914;28;20025;-75
2021/07/31 09:19:07;;;;;;;4.32;1.95;;;21.60;53.40;;;;;;5036982;28;20032;-76
2021/07/31 09:21:33;;;;;;;6.22;1.90;;;21.70;55.70;;;;;;5054935;28;20104;-74
2021/07/31 09:23:59;;;;;;;4.38;1.88;;;21.90;52.70;;;;;;5054977;28;20021;-75
2021/07/31 09:26:36;;;;;;;3.45;1.80;;;22.00;52.60;;;;;;5037376;28;20032;-73
2021/07/31 09:29:03;;;;;;;5.47;2.03;;;22.20;50.50;;;;;;5054684;28;20025;-74
2021/07/31 09:31:30;;;;;;;4.55;2.13;;;22.50;50.30;;;;;;5054646;28;20024;-74
2021/07/31 09:33:58;;;;;;;4.53;1.77;;;22.40;50.30;;;;;;5054455;28;20425;-73
2021/07/31 09:36:33;;;;;;;3.70;1.88;;;22.40;50.90;;;;;;5054591;28;20068;-76
2021/07/31 09:38:58;;;;;;;5.88;2.28;;;22.40;51.60;;;;;;5054716;28;20033;-75
2021/07/31 09:41:25;;;;;;;6.30;2.30;;;22.20;50.50;;;;;;5054635;28;20474;-75
2021/07/31 09:44:04;;;;;;;3.55;2.00;;;22.20;51.00;;;;;;5054436;28;20025;-75
2021/07/31 09:46:38;;;;;;;4.43;1.77;;;22.30;50.10;;;;;;5054220;28;20017;-74
2021/07/31 09:49:06;;;;;;;2.95;2.10;;;22.50;49.90;;;;;;5054245;28;20074;-74
2021/07/31 09:51:33;;;;;;;7.65;2.00;;;22.40;48.80;;;;;;5054482;28;20013;-76
2021/07/31 09:54:06;;;;;;;4.00;1.95;;;22.40;48.40;;;;;;5036258;28;20033;-76
2021/07/31 09:56:47;;;;;;;3.13;1.77;;;22.50;48.50;;;;;;5054020;28;20021;-74
2021/07/31 09:59:15;;;;;;;2.80;1.63;;;22.60;48.60;;;;;;5054226;28;20558;-76
2021/07/31 10:01:44;;;;;;;4.25;1.70;;;22.60;49.00;;;;;;5054392;28;20105;-75
2021/07/31 10:04:09;;;;;;;3.22;1.80;;;22.60;48.50;;;;;;5054344;28;20381;-75
2021/07/31 10:06:36;;;;;;;4.90;1.92;;;22.50;48.80;;;;;;5054003;28;20052;-75
2021/07/31 10:09:03;;;;;;;6.50;2.10;;;22.40;49.80;;;;;;5054079;28;20469;-75
2021/07/31 10:11:30;;;;;;;6.10;2.22;;;22.40;48.70;;;;;;5053955;28;20036;-75
2021/07/31 10:13:57;;;;;;;4.78;2.08;;;22.70;48.90;;;;;;5053200;28;20174;-74
2021/07/31 10:16:22;;;;;;;4.60;2.05;;;22.90;48.30;;;;;;5054126;28;20389;-74
2021/07/31 10:19:04;;;;;;;4.32;1.70;;;23.20;49.30;;;;;;5053959;28;20020;-77
2021/07/31 10:21:34;;;;;;;6.50;1.73;;;23.40;45.50;;;;;;5053584;28;20159;-76
2021/07/31 10:24:07;;;;;;;2.63;1.52;;;23.60;45.60;;;;;;5053611;28;20028;-75
2021/07/31 10:26:36;;;;;;;9.30;2.28;;;23.80;45.20;;;;;;5054261;28;20032;-77
2021/07/31 10:29:32;;;;;;;6.97;2.30;;;24.10;44.50;;;;;;5036047;28;20029;-74
2021/07/31 10:32:29;;;;;;;4.35;1.48;;;24.10;43.50;;;;;;5053678;28;20040;-75
2021/07/31 10:35:03;;;;;;;4.10;1.80;;;23.90;43.30;;;;;;5053548;28;20032;-76
2021/07/31 10:37:29;;;;;;;6.88;2.08;;;23.80;45.20;;;;;;5053527;28;20025;-73
2021/07/31 10:39:56;;;;;;;5.93;1.60;;;23.80;44.30;;;;;;5053678;28;20382;-73
2021/07/31 10:42:22;;;;;;;4.85;1.67;;;23.60;45.20;;;;;;5053486;28;20029;-81
2021/07/31 10:45:10;;;;;;;5.93;2.05;;;23.40;44.50;;;;;;5036247;28;20539;-89
2021/07/31 10:47:35;;;;;;;3.97;1.90;;;23.10;44.80;;;;;;5036496;28;20025;-77
2021/07/31 10:50:27;;;;;;;4.22;1.92;;;23.00;45.90;;;;;;5053355;28;20013;-73
2021/07/31 10:53:04;;;;;;;3.72;1.60;;;23.00;45.90;;;;;;5052736;28;20013;-73
2021/07/31 10:55:38;;;;;;;5.95;1.83;;;22.90;45.60;;;;;;5053076;28;20067;-74
2021/07/31 10:58:31;;;;;;;4.93;1.88;;;23.10;45.30;;;;;;5053195;28;20025;-73
2021/07/31 11:01:23;;;;;;;5.40;2.10;;;23.20;44.60;;;;;;5049082;28;20029;-72
2021/07/31 11:03:49;;;;;;;4.82;1.80;;;23.40;43.90;;;;;;5052919;28;20066;-73
2021/07/31 11:06:15;;;;;;;5.35;2.78;;;23.20;44.30;;;;;;5034778;28;20394;-74
2021/07/31 11:08:46;;;;;;;4.63;1.92;;;23.20;44.00;;;;;;5052824;28;20032;-74
2021/07/31 11:11:14;;;;;;;4.72;1.67;;;23.10;43.90;;;;;;5053012;28;20052;-72
2021/07/31 11:13:43;;;;;;;3.28;1.90;;;23.10;43.70;;;;;;5052865;28;20029;-73
2021/07/31 11:16:13;;;;;;;7.53;2.10;;;23.00;43.80;;;;;;5052737;28;20307;-72
2021/07/31 11:18:45;;;;;;;5.05;1.55;;;22.70;45.50;;;;;;5052954;28;20560;-73
2021/07/31 11:21:17;;;;;;;4.57;1.80;;;22.70;45.50;;;;;;5052923;28;20036;-73
2021/07/31 11:23:54;;;;;;;3.58;1.60;;;22.90;44.30;;;;;;5052606;28;20157;-73
2021/07/31 11:26:51;;;;;;;6.38;1.63;;;23.10;44.70;;;;;;5052759;28;20036;-72
2021/07/31 11:29:27;;;;;;;3.05;1.60;;;23.50;43.40;;;;;;5058006;28;20048;-73
2021/07/31 11:32:04;;;;;;;3.33;1.35;;;23.90;43.10;;;;;;5056563;28;20021;-72
2021/07/31 11:34:40;;;;;;;4.53;1.50;;;24.10;41.10;;;;;;5052798;28;20060;-73
2021/07/31 11:37:09;;;;;;;6.15;1.60;;;24.10;42.00;;;;;;5052670;28;20040;-72
2021/07/31 11:39:36;;;;;;;6.53;2.08;;;24.00;40.50;;;;;;5052765;28;20025;-73
2021/07/31 11:42:03;;;;;;;3.58;1.67;;;23.70;40.70;;;;;;5052683;28;20013;-72
2021/07/31 11:44:30;;;;;;;4.15;1.80;;;23.80;41.00;;;;;;5052482;28;20033;-74
2021/07/31 11:46:57;;;;;;;3.22;1.40;;;23.90;42.50;;;;;;5052584;28;20032;-74
2021/07/31 11:49:25;;;;;;;3.80;1.70;;;23.90;40.90;;;;;;5034558;28;20036;-74
2021/07/31 11:51:59;;;;;;;2.40;1.50;;;24.10;40.70;;;;;;5052141;28;20028;-73
2021/07/31 11:54:26;;;;;;;3.63;1.60;;;23.90;39.80;;;;;;5052309;28;20123;-73
2021/07/31 11:56:52;;;;;;;4.63;1.75;;;24.10;40.10;;;;;;5052419;28;20461;-73
2021/07/31 11:59:22;;;;;;;3.83;1.40;;;24.30;39.80;;;;;;5052444;28;20027;-73
2021/07/31 12:01:50;;;;;;;4.63;1.63;;;24.40;39.80;;;;;;5052318;28;20075;-72
2021/07/31 12:04:15;;;;;;;3.90;1.85;;;24.50;39.70;;;;;;5034456;28;20025;-72
2021/07/31 12:06:43;;;;;;;3.50;1.90;;;24.60;39.10;;;;;;5052229;28;20484;-73
2021/07/31 12:09:27;;;;;;;4.28;1.52;;;24.40;38.50;;;;;;5052472;28;20432;-73
2021/07/31 12:11:55;;;;;;;2.88;1.50;;;24.50;38.80;;;;;;5052614;28;20375;-72
2021/07/31 12:14:39;;;;;;;1.88;1.20;;;24.40;39.10;;;;;;5052407;28;20093;-74
2021/07/31 12:17:17;;;;;;;2.75;1.20;;;24.60;37.60;;;;;;5052301;28;20104;-74
2021/07/31 12:19:44;;;;;;;5.13;1.80;;;23.80;37.50;;;;;;5036309;28;20040;-72
2021/07/31 12:22:12;;;;;;;3.90;1.50;;;23.40;38.70;;;;;;5034421;28;20432;-72
2021/07/31 12:24:38;;;;;;;4.05;1.27;;;23.20;39.40;;;;;;5052487;28;20024;-72
2021/07/31 12:27:04;;;;;;;4.13;1.48;;;23.20;39.70;;;;;;5052496;28;20025;-72
2021/07/31 12:29:37;;;;;;;2.50;1.42;;;23.50;39.20;;;;;;5052423;28;20039;-72
2021/07/31 12:32:23;;;;;;;3.22;1.30;;;23.60;40.80;;;;;;5034454;28;20029;-72
2021/07/31 12:34:51;;;;;;;8.40;1.80;;;23.80;39.60;;;;;;5052210;28;20037;-72
2021/07/31 12:37:16;;;;;;;3.90;1.65;;;23.80;39.80;;;;;;5055682;28;20029;-73
2021/07/31 12:39:42;;;;;;;4.45;1.23;;;23.70;40.10;;;;;;5056049;28;20031;-73
2021/07/31 12:42:11;;;;;;;2.58;1.58;;;23.80;40.00;;;;;;5055963;28;20025;-73
2021/07/31 12:44:39;;;;;;;6.70;1.70;;;23.90;39.00;;;;;;5059259;28;20021;-73
2021/07/31 12:47:06;;;;;;;3.42;1.33;;;24.20;38.90;;;;;;5057262;28;20032;-73